sensor_id;sensor_type;location;lat;lon;timestamp;P1;durP1;ratioP1;P2;durP2;ratioP2
27979;SDS011;15315;50.836;4.430;2023-02-21T00:07:06;50.83;;;26.80;;
27979;SDS011;15315;50.836;4.430;2023-02-21T00:17:25;63.72;;;30.83;;
27979;SDS011;15315;50.836;4.430;2023-02-21T00:27:44;59.30;;;31.35;;
27979;SDS011;15315;50.836;4.430;2023-02-21T00:38:03;66.20;;;32.33;;
27979;SDS011;15315;50.836;4.430;2023-02-21T00:48:22;66.53;;;31.88;;
27979;SDS011;15315;50.836;4.430;2023-02-21T00:58:42;71.90;;;32.58;;
27979;SDS011;15315;50.836;4.430;2023-02-21T01:09:01;58.47;;;31.02;;
27979;SDS011;15315;50.836;4.430;2023-02-21T01:19:20;48.92;;;27.00;;
27979;SDS011;15315;50.836;4.430;2023-02-21T01:29:39;57.35;;;29.23;;
27979;SDS011;15315;50.836;4.430;2023-02-21T01:39:58;58.97;;;29.15;;
27979;SDS011;15315;50.836;4.430;2023-02-21T02:00:39;45.22;;;23.90;;
27979;SDS011;15315;50.836;4.430;2023-02-21T02:11:04;45.10;;;22.17;;
27979;SDS011;15315;50.836;4.430;2023-02-21T02:22:07;57.17;;;24.08;;
27979;SDS011;15315;50.836;4.430;2023-02-21T02:42:18;46.85;;;21.52;;
27979;SDS011;15315;50.836;4.430;2023-02-21T02:52:28;40.97;;;21.83;;
27979;SDS011;15315;50.836;4.430;2023-02-21T03:02:41;48.40;;;22.75;;
27979;SDS011;15315;50.836;4.430;2023-02-21T03:22:47;51.55;;;23.20;;
27979;SDS011;15315;50.836;4.430;2023-02-21T03:32:51;53.67;;;24.23;;
27979;SDS011;15315;50.836;4.430;2023-02-21T03:42:53;55.17;;;23.63;;
27979;SDS011;15315;50.836;4.430;2023-02-21T03:52:55;49.35;;;21.83;;
27979;SDS011;15315;50.836;4.430;2023-02-21T04:02:55;47.70;;;21.00;;
27979;SDS011;15315;50.836;4.430;2023-02-21T04:12:56;37.08;;;18.65;;
27979;SDS011;15315;50.836;4.430;2023-02-21T04:22:56;33.80;;;17.38;;
27979;SDS011;15315;50.836;4.430;2023-02-21T04:32:57;35.13;;;16.58;;
27979;SDS011;15315;50.836;4.430;2023-02-21T04:42:57;34.90;;;16.67;;
27979;SDS011;15315;50.836;4.430;2023-02-21T04:52:57;33.72;;;15.73;;
27979;SDS011;15315;50.836;4.430;2023-02-21T05:02:58;31.98;;;15.43;;
27979;SDS011;15315;50.836;4.430;2023-02-21T05:12:58;24.00;;;13.20;;
27979;SDS011;15315;50.836;4.430;2023-02-21T05:22:59;26.05;;;13.75;;
27979;SDS011;15315;50.836;4.430;2023-02-21T05:32:59;25.35;;;12.88;;
27979;SDS011;15315;50.836;4.430;2023-02-21T05:43:00;20.25;;;11.73;;
27979;SDS011;15315;50.836;4.430;2023-02-21T05:53:00;20.02;;;10.63;;
27979;SDS011;15315;50.836;4.430;2023-02-21T06:03:01;19.02;;;10.07;;
27979;SDS011;15315;50.836;4.430;2023-02-21T06:13:01;23.70;;;10.13;;
27979;SDS011;15315;50.836;4.430;2023-02-21T06:23:01;17.77;;;9.15;;
27979;SDS011;15315;50.836;4.430;2023-02-21T06:33:03;17.00;;;8.60;;
27979;SDS011;15315;50.836;4.430;2023-02-21T06:43:04;17.92;;;9.30;;
27979;SDS011;15315;50.836;4.430;2023-02-21T06:53:04;14.25;;;8.07;;
27979;SDS011;15315;50.836;4.430;2023-02-21T07:03:04;15.80;;;7.53;;
27979;SDS011;15315;50.836;4.430;2023-02-21T07:13:05;20.50;;;8.65;;
27979;SDS011;15315;50.836;4.430;2023-02-21T07:23:05;17.92;;;9.20;;
27979;SDS011;15315;50.836;4.430;2023-02-21T07:33:06;20.40;;;10.88;;
27979;SDS011;15315;50.836;4.430;2023-02-21T07:43:06;29.85;;;12.93;;
27979;SDS011;15315;50.836;4.430;2023-02-21T07:53:07;29.95;;;14.23;;
27979;SDS011;15315;50.836;4.430;2023-02-21T08:03:08;33.42;;;15.60;;
27979;SDS011;15315;50.836;4.430;2023-02-21T08:13:11;33.17;;;16.07;;
27979;SDS011;15315;50.836;4.430;2023-02-21T08:23:12;33.70;;;16.70;;
27979;SDS011;15315;50.836;4.430;2023-02-21T08:33:13;36.08;;;17.30;;
27979;SDS011;15315;50.836;4.430;2023-02-21T08:43:14;38.58;;;18.35;;
27979;SDS011;15315;50.836;4.430;2023-02-21T08:53:14;39.63;;;18.35;;
27979;SDS011;15315;50.836;4.430;2023-02-21T09:03:15;37.10;;;18.08;;
27979;SDS011;15315;50.836;4.430;2023-02-21T09:13:15;29.88;;;15.68;;
27979;SDS011;15315;50.836;4.430;2023-02-21T09:23:16;37.50;;;16.38;;
27979;SDS011;15315;50.836;4.430;2023-02-21T09:33:19;29.65;;;15.35;;
27979;SDS011;15315;50.836;4.430;2023-02-21T09:43:27;33.17;;;13.68;;
27979;SDS011;15315;50.836;4.430;2023-02-21T09:53:33;32.25;;;15.75;;
27979;SDS011;15315;50.836;4.430;2023-02-21T10:24:13;27.85;;;14.63;;
27979;SDS011;15315;50.836;4.430;2023-02-21T10:34:25;31.05;;;16.08;;
27979;SDS011;15315;50.836;4.430;2023-02-21T10:44:28;40.60;;;19.42;;
27979;SDS011;15315;50.836;4.430;2023-02-21T10:54:31;29.67;;;15.50;;
27979;SDS011;15315;50.836;4.430;2023-02-21T11:04:32;32.40;;;15.60;;
27979;SDS011;15315;50.836;4.430;2023-02-21T11:14:34;37.28;;;17.45;;
27979;SDS011;15315;50.836;4.430;2023-02-21T11:24:45;36.92;;;18.13;;
27979;SDS011;15315;50.836;4.430;2023-02-21T11:34:58;37.63;;;17.88;;
27979;SDS011;15315;50.836;4.430;2023-02-21T11:45:19;33.97;;;18.83;;
27979;SDS011;15315;50.836;4.430;2023-02-21T11:55:23;31.65;;;17.98;;
27979;SDS011;15315;50.836;4.430;2023-02-21T12:05:28;30.67;;;16.45;;
27979;SDS011;15315;50.836;4.430;2023-02-21T12:26:10;41.10;;;20.00;;
27979;SDS011;15315;50.836;4.430;2023-02-21T12:36:30;28.70;;;15.50;;
27979;SDS011;15315;50.836;4.430;2023-02-21T12:46:41;40.08;;;17.33;;
27979;SDS011;15315;50.836;4.430;2023-02-21T13:06:57;27.38;;;15.68;;
27979;SDS011;15315;50.836;4.430;2023-02-21T13:17:03;29.35;;;15.38;;
27979;SDS011;15315;50.836;4.430;2023-02-21T13:37:15;29.88;;;14.73;;
27979;SDS011;15315;50.836;4.430;2023-02-21T13:47:18;24.35;;;13.73;;
27979;SDS011;15315;50.836;4.430;2023-02-21T13:57:30;26.00;;;15.95;;
27979;SDS011;15315;50.836;4.430;2023-02-21T14:07:41;25.60;;;14.05;;
27979;SDS011;15315;50.836;4.430;2023-02-21T14:17:46;23.58;;;13.63;;
27979;SDS011;15315;50.836;4.430;2023-02-21T14:27:50;22.77;;;13.55;;
27979;SDS011;15315;50.836;4.430;2023-02-21T14:38:04;26.30;;;14.73;;
27979;SDS011;15315;50.836;4.430;2023-02-21T15:08:53;24.45;;;13.93;;
27979;SDS011;15315;50.836;4.430;2023-02-21T15:18:58;29.20;;;13.95;;
27979;SDS011;15315;50.836;4.430;2023-02-21T15:39:06;25.15;;;13.45;;
27979;SDS011;15315;50.836;4.430;2023-02-21T15:49:20;21.58;;;11.82;;
27979;SDS011;15315;50.836;4.430;2023-02-21T15:59:25;20.70;;;11.43;;
27979;SDS011;15315;50.836;4.430;2023-02-21T16:09:30;21.63;;;12.32;;
27979;SDS011;15315;50.836;4.430;2023-02-21T16:19:35;24.85;;;12.00;;
27979;SDS011;15315;50.836;4.430;2023-02-21T16:29:36;22.98;;;13.63;;
27979;SDS011;15315;50.836;4.430;2023-02-21T16:39:36;21.25;;;12.48;;
27979;SDS011;15315;50.836;4.430;2023-02-21T16:49:37;22.67;;;12.93;;
27979;SDS011;15315;50.836;4.430;2023-02-21T16:59:37;23.45;;;13.77;;
27979;SDS011;15315;50.836;4.430;2023-02-21T17:09:38;27.33;;;14.25;;
27979;SDS011;15315;50.836;4.430;2023-02-21T17:19:38;27.50;;;15.05;;
27979;SDS011;15315;50.836;4.430;2023-02-21T17:29:39;27.02;;;15.82;;
27979;SDS011;15315;50.836;4.430;2023-02-21T17:39:39;23.70;;;14.38;;
27979;SDS011;15315;50.836;4.430;2023-02-21T17:49:39;25.92;;;15.70;;
27979;SDS011;15315;50.836;4.430;2023-02-21T17:59:40;27.77;;;16.10;;
27979;SDS011;15315;50.836;4.430;2023-02-21T18:09:40;29.83;;;16.02;;
27979;SDS011;15315;50.836;4.430;2023-02-21T18:19:40;38.38;;;17.15;;
27979;SDS011;15315;50.836;4.430;2023-02-21T18:29:41;32.85;;;17.02;;
27979;SDS011;15315;50.836;4.430;2023-02-21T18:39:41;33.17;;;17.38;;
27979;SDS011;15315;50.836;4.430;2023-02-21T18:49:42;31.33;;;18.75;;
27979;SDS011;15315;50.836;4.430;2023-02-21T18:59:43;36.42;;;18.42;;
27979;SDS011;15315;50.836;4.430;2023-02-21T19:09:44;39.58;;;19.40;;
27979;SDS011;15315;50.836;4.430;2023-02-21T19:19:46;45.17;;;20.15;;
27979;SDS011;15315;50.836;4.430;2023-02-21T19:29:46;50.85;;;25.58;;
27979;SDS011;15315;50.836;4.430;2023-02-21T19:39:46;53.28;;;25.83;;
27979;SDS011;15315;50.836;4.430;2023-02-21T19:49:47;63.03;;;30.27;;
27979;SDS011;15315;50.836;4.430;2023-02-21T19:59:47;48.47;;;22.98;;
27979;SDS011;15315;50.836;4.430;2023-02-21T20:09:48;38.55;;;20.45;;
27979;SDS011;15315;50.836;4.430;2023-02-21T20:19:48;40.75;;;20.92;;
27979;SDS011;15315;50.836;4.430;2023-02-21T20:29:49;40.42;;;20.45;;
27979;SDS011;15315;50.836;4.430;2023-02-21T20:39:49;43.05;;;20.88;;
27979;SDS011;15315;50.836;4.430;2023-02-21T20:49:50;45.90;;;20.10;;
27979;SDS011;15315;50.836;4.430;2023-02-21T20:59:50;42.13;;;20.13;;
27979;SDS011;15315;50.836;4.430;2023-02-21T21:09:53;45.53;;;20.58;;
27979;SDS011;15315;50.836;4.430;2023-02-21T21:19:54;48.53;;;23.45;;
27979;SDS011;15315;50.836;4.430;2023-02-21T21:29:54;45.53;;;22.73;;
27979;SDS011;15315;50.836;4.430;2023-02-21T21:39:55;52.67;;;24.23;;
27979;SDS011;15315;50.836;4.430;2023-02-21T21:49:56;75.20;;;30.50;;
27979;SDS011;15315;50.836;4.430;2023-02-21T22:00:05;64.15;;;28.30;;
27979;SDS011;15315;50.836;4.430;2023-02-21T22:10:12;69.43;;;29.25;;
27979;SDS011;15315;50.836;4.430;2023-02-21T22:20:16;65.72;;;29.20;;
27979;SDS011;15315;50.836;4.430;2023-02-21T22:30:19;63.85;;;28.48;;
27979;SDS011;15315;50.836;4.430;2023-02-21T22:40:22;63.05;;;29.77;;
27979;SDS011;15315;50.836;4.430;2023-02-21T22:50:24;67.97;;;26.85;;
27979;SDS011;15315;50.836;4.430;2023-02-21T23:00:26;57.83;;;25.15;;
27979;SDS011;15315;50.836;4.430;2023-02-21T23:10:33;63.05;;;25.63;;
27979;SDS011;15315;50.836;4.430;2023-02-21T23:20:39;62.78;;;27.13;;
27979;SDS011;15315;50.836;4.430;2023-02-21T23:30:43;56.58;;;24.95;;
27979;SDS011;15315;50.836;4.430;2023-02-21T23:40:46;60.90;;;26.10;;
27979;SDS011;15315;50.836;4.430;2023-02-21T23:50:55;82.43;;;26.20;;
